ENGC

Gullfax Platform Airport

Norway
METAR ENGC 212250Z 19018KT 9999 FEW006 BKN035 07/06 Q1016 W06/S4
Observed Flight Rules
Apr-21 @ 22:50 UTC (13 minutes ago) Visual Flight Rules
Wind Visibility Clouds
190° at 18 knots 10,000+ meters
  • Few at 600' AGL
  • Broken at 3,500' AGL
Temperatures Readings
Current 7°C / 45°F
Dewpoint 6°C / 43°F
Humidity 93%
Altimeter 30" Hg
Pressure 1016 hPa
Elevation 10
METAR ENGC 212250Z 19018KT 9999 FEW006 BKN035 07/06 Q1016 W06/S4
Observed Flight Rules
Apr-21 @ 22:50 UTC
(13 minutes ago)
VFR
Wind Visibility
190° at 18 knots 10,000+ meters
Clouds
  • Few at 600' AGL
  • Broken at 3,500' AGL
Temperature Dewpoint
7°C / 45°F 6°C / 43°F
Humidity Altimeter Pressure
93% 30" Hg 1016 hPa